createdAt,value
2023-02-14T00:04:32.615Z,28.70
2023-02-14T00:09:35.423Z,46.30
2023-02-14T00:14:56.964Z,36.90
2023-02-14T00:19:59.677Z,34.40
2023-02-14T00:25:02.449Z,51.70
2023-02-14T00:30:07.303Z,57.70
2023-02-14T00:35:10.874Z,37.20
2023-02-14T00:40:15.146Z,37.10
2023-02-14T00:45:19.208Z,41.30
2023-02-14T00:50:22.021Z,32.30
2023-02-14T00:55:24.799Z,41.40
2023-02-14T01:00:27.602Z,29.80
2023-02-14T01:05:30.401Z,26.10
2023-02-14T01:10:33.147Z,41.20
2023-02-14T01:15:41.308Z,51.30
2023-02-14T01:20:44.638Z,26.90
2023-02-14T01:30:52.040Z,38.80
2023-02-14T01:35:54.902Z,22.70
2023-02-14T01:40:58.389Z,43.00
2023-02-14T01:46:01.373Z,47.40
2023-02-14T01:51:04.320Z,34.10
2023-02-14T01:56:13.372Z,32.20
2023-02-14T02:01:18.131Z,20.20
2023-02-14T02:06:20.866Z,31.30
2023-02-14T02:11:23.718Z,35.50
2023-02-14T02:16:51.496Z,40.30
2023-02-14T02:22:13.979Z,25.00
2023-02-14T02:28:04.589Z,27.00
2023-02-14T02:33:43.436Z,39.70
2023-02-14T02:38:54.835Z,20.00
2023-02-14T02:44:18.994Z,32.00
2023-02-14T02:50:04.465Z,37.00
2023-02-14T02:55:18.206Z,31.30
2023-02-14T03:00:24.469Z,30.10
2023-02-14T03:05:29.755Z,24.60
2023-02-14T03:10:38.076Z,53.30
2023-02-14T03:16:08.443Z,45.20
2023-02-14T03:21:29.414Z,28.10
2023-02-14T03:26:43.724Z,38.00
2023-02-14T03:32:11.643Z,40.90
2023-02-14T03:37:40.828Z,23.20
2023-02-14T03:42:54.992Z,25.30
2023-02-14T03:48:04.159Z,40.40
2023-02-14T03:53:10.302Z,27.20
2023-02-14T03:58:38.103Z,21.10
2023-02-14T04:03:42.820Z,41.40
2023-02-14T04:08:46.172Z,35.50
2023-02-14T04:19:10.147Z,36.80
2023-02-14T04:24:12.855Z,33.70
2023-02-14T04:29:15.553Z,44.80
2023-02-14T04:34:18.299Z,46.00
2023-02-14T04:39:20.999Z,29.80
2023-02-14T04:44:24.286Z,63.30
2023-02-14T04:54:29.824Z,34.40
2023-02-14T04:59:32.618Z,48.50
2023-02-14T05:04:35.420Z,47.10
2023-02-14T05:09:38.213Z,33.20
2023-02-14T05:14:41.014Z,37.40
2023-02-14T05:19:43.916Z,22.50
2023-02-14T05:24:46.699Z,45.00
2023-02-14T05:29:49.442Z,33.40
2023-02-14T05:34:52.219Z,33.20
2023-02-14T05:39:55.016Z,51.50
2023-02-14T05:44:57.715Z,40.40
2023-02-14T05:50:00.631Z,48.70
2023-02-14T05:55:04.260Z,44.60
2023-02-14T06:00:08.424Z,44.10
2023-02-14T06:05:11.389Z,78.30
2023-02-14T06:10:14.497Z,78.60
2023-02-14T06:15:17.500Z,55.20
2023-02-14T06:20:20.968Z,86.90
2023-02-14T06:25:24.662Z,60.00
2023-02-14T06:30:28.090Z,70.70
2023-02-14T06:35:30.906Z,43.50
2023-02-14T06:40:33.758Z,55.80
2023-02-14T06:45:36.798Z,60.50
2023-02-14T06:50:39.515Z,38.10
2023-02-14T06:55:43.844Z,66.10
2023-02-14T07:00:47.550Z,56.30
2023-02-14T07:05:51.180Z,72.40
2023-02-14T07:11:00.534Z,28.20
2023-02-14T07:16:06.370Z,47.80
2023-02-14T07:21:16.350Z,31.90
2023-02-14T07:26:31.027Z,39.30
2023-02-14T07:31:36.858Z,26.40
2023-02-14T07:36:42.813Z,35.70
2023-02-14T07:41:48.455Z,27.30
2023-02-14T07:46:51.425Z,38.40
2023-02-14T07:51:54.208Z,37.60
2023-02-14T07:56:57.522Z,34.90
2023-02-14T08:12:25.736Z,26.70
2023-02-14T08:17:28.459Z,34.80
2023-02-14T08:22:31.237Z,30.90
2023-02-14T08:27:34.032Z,30.50
2023-02-14T08:32:37.193Z,30.60
2023-02-14T08:37:40.092Z,22.70
2023-02-14T08:42:43.092Z,32.10
2023-02-14T08:47:50.418Z,30.00
2023-02-14T08:52:53.871Z,17.90
2023-02-14T08:57:57.989Z,25.80
2023-02-14T09:03:01.272Z,31.30
2023-02-14T09:08:04.395Z,30.70
2023-02-14T09:13:07.546Z,37.90
2023-02-14T09:18:10.445Z,26.90
2023-02-14T09:23:13.449Z,30.00
2023-02-14T09:28:16.256Z,31.80
2023-02-14T09:33:19.304Z,31.00
2023-02-14T09:38:22.065Z,37.90
2023-02-14T09:43:43.218Z,26.50
2023-02-14T09:48:48.581Z,59.90
2023-02-14T09:54:01.781Z,56.60
2023-02-14T10:04:45.801Z,38.50
2023-02-14T10:10:11.590Z,35.60
2023-02-14T10:15:27.668Z,23.40
2023-02-14T10:20:39.213Z,43.80
2023-02-14T10:25:49.014Z,23.40
2023-02-14T10:31:22.649Z,34.60
2023-02-14T10:36:47.652Z,38.50
2023-02-14T10:41:57.020Z,27.60
2023-02-14T10:47:40.665Z,31.60
2023-02-14T10:57:51.248Z,22.80
2023-02-14T11:02:58.043Z,28.80
2023-02-14T11:08:02.006Z,26.40
2023-02-14T11:13:27.352Z,25.60
2023-02-14T11:18:36.201Z,30.90
2023-02-14T11:23:43.520Z,32.00
2023-02-14T11:28:55.705Z,34.30
2023-02-14T11:34:44.471Z,25.10
2023-02-14T11:39:50.620Z,28.90
2023-02-14T11:44:56.424Z,25.90
2023-02-14T11:50:01.218Z,20.20
2023-02-14T11:55:05.330Z,30.60
2023-02-14T12:00:18.469Z,33.90
2023-02-14T12:06:00.683Z,22.90
2023-02-14T12:11:06.321Z,38.20
2023-02-14T12:16:24.106Z,39.70
2023-02-14T12:21:51.539Z,35.00
2023-02-14T12:27:40.893Z,35.30
2023-02-14T12:32:50.341Z,28.50
2023-02-14T12:38:17.362Z,45.80
2023-02-14T12:43:35.479Z,26.40
2023-02-14T12:49:03.217Z,35.30
2023-02-14T12:54:50.830Z,33.30
2023-02-14T13:00:24.820Z,76.30
2023-02-14T13:05:49.618Z,26.80
2023-02-14T13:11:04.494Z,44.20
2023-02-14T13:16:25.312Z,45.90
2023-02-14T13:21:33.568Z,73.30
2023-02-14T13:26:39.021Z,61.90
2023-02-14T13:31:42.293Z,28.60
2023-02-14T13:36:45.899Z,23.60
2023-02-14T13:41:48.837Z,51.50
2023-02-14T13:46:52.898Z,45.80
2023-02-14T13:52:03.631Z,28.40
2023-02-14T13:57:27.240Z,59.80
2023-02-14T14:07:34.845Z,54.40
2023-02-14T14:12:39.163Z,67.60
2023-02-14T14:18:06.741Z,59.10
2023-02-14T14:23:39.054Z,38.80
2023-02-14T14:28:48.392Z,50.50
2023-02-14T14:34:01.565Z,45.50
2023-02-14T14:39:04.425Z,38.10
2023-02-14T14:44:07.782Z,36.20
2023-02-14T14:49:12.617Z,122.30
2023-02-14T14:54:19.959Z,97.00
2023-02-14T14:59:25.861Z,127.70
2023-02-14T15:04:31.957Z,41.20
2023-02-14T15:09:34.827Z,58.20
2023-02-14T15:14:42.171Z,67.30
2023-02-14T15:19:51.699Z,59.30
2023-02-14T15:24:54.540Z,44.10
2023-02-14T15:30:00.836Z,46.20
2023-02-14T15:35:07.762Z,66.90
2023-02-14T15:40:31.845Z,109.90
2023-02-14T15:45:34.659Z,88.20
2023-02-14T15:50:46.194Z,81.80
2023-02-14T15:55:50.518Z,171.60
2023-02-14T16:00:54.311Z,155.90
2023-02-14T16:05:57.663Z,117.00
2023-02-14T16:11:05.250Z,67.50
2023-02-14T16:16:11.383Z,108.40
2023-02-14T16:21:31.420Z,77.60
2023-02-14T16:26:38.033Z,140.00
2023-02-14T16:32:14.588Z,54.10
2023-02-14T16:37:25.188Z,116.80
2023-02-14T16:42:28.107Z,99.80
2023-02-14T16:47:30.822Z,73.50
2023-02-14T16:52:33.756Z,111.60
2023-02-14T16:57:41.398Z,81.00
2023-02-14T17:02:44.956Z,84.40
2023-02-14T17:07:47.940Z,75.80
2023-02-14T17:12:51.872Z,122.10
2023-02-14T17:18:01.457Z,137.10
2023-02-14T17:23:04.185Z,69.30
2023-02-14T17:28:06.918Z,52.30
2023-02-14T17:33:09.641Z,62.00
2023-02-14T17:38:12.982Z,53.00
2023-02-14T17:43:15.736Z,64.70
2023-02-14T17:48:18.442Z,118.10
2023-02-14T17:53:21.192Z,136.60
2023-02-14T17:58:23.936Z,280.90
2023-02-14T18:03:26.740Z,92.30
2023-02-14T18:08:39.171Z,196.70
2023-02-14T18:13:42.052Z,220.10
2023-02-14T18:18:45.624Z,175.00
2023-02-14T18:23:48.900Z,115.60
2023-02-14T18:33:55.123Z,229.20
2023-02-14T18:38:58.844Z,128.70
2023-02-14T18:44:01.986Z,134.60
2023-02-14T18:49:07.170Z,141.00
2023-02-14T18:54:10.024Z,166.70
2023-02-14T18:59:13.644Z,381.90
2023-02-14T19:04:17.958Z,271.70
2023-02-14T19:09:20.785Z,186.90
2023-02-14T19:14:23.517Z,95.80
2023-02-14T19:19:26.344Z,117.10
2023-02-14T19:24:29.173Z,231.20
2023-02-14T19:29:31.972Z,124.70
2023-02-14T19:34:35.001Z,183.50
2023-02-14T19:39:37.780Z,266.20
2023-02-14T19:44:40.617Z,146.40
2023-02-14T19:49:43.700Z,188.80
2023-02-14T19:54:46.698Z,178.30
2023-02-14T19:59:49.501Z,188.60
2023-02-14T20:04:53.625Z,226.70
2023-02-14T20:09:56.437Z,170.10
2023-02-14T20:14:59.228Z,117.30
2023-02-14T20:20:02.034Z,109.10
2023-02-14T20:25:06.472Z,115.80
2023-02-14T20:30:10.209Z,74.60
2023-02-14T20:35:13.612Z,92.30
2023-02-14T20:45:19.022Z,140.50
2023-02-14T20:50:22.013Z,48.60
2023-02-14T20:55:27.120Z,83.60
2023-02-14T21:00:30.166Z,81.60
2023-02-14T21:05:34.603Z,45.30
2023-02-14T21:10:37.512Z,88.50
2023-02-14T21:15:40.307Z,89.50
2023-02-14T21:20:43.213Z,68.20
2023-02-14T21:25:46.021Z,67.20
2023-02-14T21:30:48.769Z,55.10
2023-02-14T21:35:51.622Z,61.70
2023-02-14T21:41:04.953Z,56.50
2023-02-14T21:51:11.988Z,43.30
2023-02-14T21:56:19.723Z,42.30
2023-02-14T22:01:28.463Z,51.00
2023-02-14T22:06:31.222Z,28.40
2023-02-14T22:11:34.875Z,51.70
2023-02-14T22:16:38.222Z,58.30
2023-02-14T22:26:44.432Z,49.20
2023-02-14T22:31:47.328Z,37.30
2023-02-14T22:36:51.346Z,71.40
2023-02-14T22:41:54.158Z,42.00
2023-02-14T22:46:56.971Z,43.80
2023-02-14T22:51:59.754Z,26.20
2023-02-14T22:57:02.481Z,54.90
2023-02-14T23:02:05.340Z,50.90
2023-02-14T23:07:11.241Z,37.70
2023-02-14T23:12:33.992Z,33.50
2023-02-14T23:18:02.804Z,36.60
2023-02-14T23:23:05.528Z,36.20
2023-02-14T23:28:08.241Z,40.50
2023-02-14T23:33:11.001Z,39.10
2023-02-14T23:38:13.747Z,47.80
2023-02-14T23:43:16.522Z,44.90
2023-02-14T23:48:19.286Z,40.20
2023-02-14T23:53:22.006Z,43.90
2023-02-14T23:58:24.768Z,42.60
